sensor_id;sensor_type;location;lat;lon;timestamp;P1;durP1;ratioP1;P2;durP2;ratioP2
41927;SDS011;27616;51.420;6.788;2023-07-02T00:00:59;4.22;;;1.95;;
41927;SDS011;27616;51.420;6.788;2023-07-02T00:03:25;5.13;;;2.30;;
41927;SDS011;27616;51.420;6.788;2023-07-02T00:05:50;5.53;;;2.22;;
41927;SDS011;27616;51.420;6.788;2023-07-02T00:08:19;7.30;;;2.17;;
41927;SDS011;27616;51.420;6.788;2023-07-02T00:10:46;4.65;;;2.30;;
41927;SDS011;27616;51.420;6.788;2023-07-02T00:13:12;5.35;;;2.22;;
41927;SDS011;27616;51.420;6.788;2023-07-02T00:15:37;7.68;;;2.45;;
41927;SDS011;27616;51.420;6.788;2023-07-02T00:18:03;5.88;;;2.65;;
41927;SDS011;27616;51.420;6.788;2023-07-02T00:20:29;5.03;;;2.50;;
41927;SDS011;27616;51.420;6.788;2023-07-02T00:22:55;8.80;;;2.80;;
41927;SDS011;27616;51.420;6.788;2023-07-02T00:25:21;6.97;;;2.83;;
41927;SDS011;27616;51.420;6.788;2023-07-02T00:27:47;5.53;;;2.85;;
41927;SDS011;27616;51.420;6.788;2023-07-02T00:30:12;4.00;;;2.40;;
41927;SDS011;27616;51.420;6.788;2023-07-02T00:32:39;8.13;;;2.60;;
41927;SDS011;27616;51.420;6.788;2023-07-02T00:35:04;5.15;;;2.10;;
41927;SDS011;27616;51.420;6.788;2023-07-02T00:37:30;5.55;;;2.85;;
41927;SDS011;27616;51.420;6.788;2023-07-02T00:39:56;5.85;;;2.30;;
41927;SDS011;27616;51.420;6.788;2023-07-02T00:42:22;7.95;;;2.45;;
41927;SDS011;27616;51.420;6.788;2023-07-02T00:44:48;5.22;;;2.45;;
41927;SDS011;27616;51.420;6.788;2023-07-02T00:47:17;4.90;;;2.28;;
41927;SDS011;27616;51.420;6.788;2023-07-02T00:49:43;7.05;;;2.53;;
41927;SDS011;27616;51.420;6.788;2023-07-02T00:52:09;5.90;;;2.33;;
41927;SDS011;27616;51.420;6.788;2023-07-02T00:54:35;6.53;;;2.38;;
41927;SDS011;27616;51.420;6.788;2023-07-02T00:57:01;4.30;;;2.25;;
41927;SDS011;27616;51.420;6.788;2023-07-02T00:59:28;6.60;;;2.33;;
41927;SDS011;27616;51.420;6.788;2023-07-02T01:01:55;5.28;;;2.58;;
41927;SDS011;27616;51.420;6.788;2023-07-02T01:04:22;7.85;;;3.05;;
41927;SDS011;27616;51.420;6.788;2023-07-02T01:06:52;5.88;;;2.75;;
41927;SDS011;27616;51.420;6.788;2023-07-02T01:09:24;6.82;;;2.88;;
41927;SDS011;27616;51.420;6.788;2023-07-02T01:11:58;7.38;;;2.92;;
41927;SDS011;27616;51.420;6.788;2023-07-02T01:14:27;6.78;;;2.88;;
41927;SDS011;27616;51.420;6.788;2023-07-02T01:16:56;8.45;;;2.97;;
41927;SDS011;27616;51.420;6.788;2023-07-02T01:22:23;7.22;;;3.25;;
41927;SDS011;27616;51.420;6.788;2023-07-02T01:24:53;6.95;;;3.42;;
41927;SDS011;27616;51.420;6.788;2023-07-02T01:27:20;10.95;;;3.70;;
41927;SDS011;27616;51.420;6.788;2023-07-02T01:29:46;9.68;;;3.53;;
41927;SDS011;27616;51.420;6.788;2023-07-02T01:34:41;7.60;;;3.25;;
41927;SDS011;27616;51.420;6.788;2023-07-02T01:37:08;8.57;;;3.47;;
41927;SDS011;27616;51.420;6.788;2023-07-02T01:39:34;9.30;;;3.50;;
41927;SDS011;27616;51.420;6.788;2023-07-02T01:42:10;12.38;;;3.38;;
41927;SDS011;27616;51.420;6.788;2023-07-02T01:44:37;7.60;;;3.70;;
41927;SDS011;27616;51.420;6.788;2023-07-02T01:47:04;9.82;;;3.83;;
41927;SDS011;27616;51.420;6.788;2023-07-02T01:49:30;8.25;;;3.38;;
41927;SDS011;27616;51.420;6.788;2023-07-02T01:51:56;9.73;;;3.70;;
41927;SDS011;27616;51.420;6.788;2023-07-02T01:54:23;9.95;;;3.13;;
41927;SDS011;27616;51.420;6.788;2023-07-02T01:56:52;11.70;;;3.80;;
41927;SDS011;27616;51.420;6.788;2023-07-02T01:59:18;6.45;;;3.00;;
41927;SDS011;27616;51.420;6.788;2023-07-02T02:01:43;9.20;;;3.13;;
41927;SDS011;27616;51.420;6.788;2023-07-02T02:04:09;10.07;;;3.80;;
41927;SDS011;27616;51.420;6.788;2023-07-02T02:06:36;11.25;;;3.50;;
41927;SDS011;27616;51.420;6.788;2023-07-02T02:09:04;7.90;;;3.10;;
41927;SDS011;27616;51.420;6.788;2023-07-02T02:11:30;9.32;;;2.78;;
41927;SDS011;27616;51.420;6.788;2023-07-02T02:13:57;7.97;;;3.33;;
41927;SDS011;27616;51.420;6.788;2023-07-02T02:16:23;9.18;;;3.50;;
41927;SDS011;27616;51.420;6.788;2023-07-02T02:18:49;8.38;;;3.17;;
41927;SDS011;27616;51.420;6.788;2023-07-02T02:21:17;8.80;;;3.38;;
41927;SDS011;27616;51.420;6.788;2023-07-02T02:23:43;10.07;;;3.40;;
41927;SDS011;27616;51.420;6.788;2023-07-02T02:26:09;7.15;;;3.45;;
41927;SDS011;27616;51.420;6.788;2023-07-02T02:28:35;9.77;;;3.67;;
41927;SDS011;27616;51.420;6.788;2023-07-02T02:31:01;8.88;;;3.72;;
41927;SDS011;27616;51.420;6.788;2023-07-02T02:33:28;10.45;;;4.10;;
41927;SDS011;27616;51.420;6.788;2023-07-02T02:35:54;9.65;;;4.07;;
41927;SDS011;27616;51.420;6.788;2023-07-02T02:38:20;12.57;;;4.35;;
41927;SDS011;27616;51.420;6.788;2023-07-02T02:40:45;11.88;;;4.97;;
41927;SDS011;27616;51.420;6.788;2023-07-02T02:43:15;14.85;;;4.45;;
41927;SDS011;27616;51.420;6.788;2023-07-02T02:45:43;12.15;;;4.70;;
41927;SDS011;27616;51.420;6.788;2023-07-02T02:48:10;11.85;;;4.25;;
41927;SDS011;27616;51.420;6.788;2023-07-02T02:50:36;14.48;;;5.00;;
41927;SDS011;27616;51.420;6.788;2023-07-02T02:53:09;9.10;;;4.47;;
41927;SDS011;27616;51.420;6.788;2023-07-02T02:55:36;12.32;;;4.57;;
41927;SDS011;27616;51.420;6.788;2023-07-02T02:58:02;11.05;;;4.72;;
41927;SDS011;27616;51.420;6.788;2023-07-02T03:00:28;13.20;;;5.32;;
41927;SDS011;27616;51.420;6.788;2023-07-02T03:02:54;12.45;;;4.68;;
41927;SDS011;27616;51.420;6.788;2023-07-02T03:05:20;14.20;;;5.38;;
41927;SDS011;27616;51.420;6.788;2023-07-02T03:07:47;12.65;;;5.32;;
41927;SDS011;27616;51.420;6.788;2023-07-02T03:10:12;11.70;;;4.97;;
41927;SDS011;27616;51.420;6.788;2023-07-02T03:12:38;15.50;;;5.18;;
41927;SDS011;27616;51.420;6.788;2023-07-02T03:15:04;12.80;;;4.85;;
41927;SDS011;27616;51.420;6.788;2023-07-02T03:17:30;16.95;;;5.85;;
41927;SDS011;27616;51.420;6.788;2023-07-02T03:19:56;10.05;;;5.25;;
41927;SDS011;27616;51.420;6.788;2023-07-02T03:22:22;14.18;;;4.80;;
41927;SDS011;27616;51.420;6.788;2023-07-02T03:24:47;20.48;;;6.47;;
41927;SDS011;27616;51.420;6.788;2023-07-02T03:27:13;12.50;;;5.07;;
41927;SDS011;27616;51.420;6.788;2023-07-02T03:29:38;17.30;;;5.80;;
41927;SDS011;27616;51.420;6.788;2023-07-02T03:32:04;13.50;;;5.43;;
41927;SDS011;27616;51.420;6.788;2023-07-02T03:34:30;12.95;;;5.38;;
41927;SDS011;27616;51.420;6.788;2023-07-02T03:36:56;14.48;;;5.85;;
41927;SDS011;27616;51.420;6.788;2023-07-02T03:39:21;13.82;;;5.82;;
41927;SDS011;27616;51.420;6.788;2023-07-02T03:41:47;16.58;;;6.07;;
41927;SDS011;27616;51.420;6.788;2023-07-02T03:44:13;14.15;;;5.40;;
41927;SDS011;27616;51.420;6.788;2023-07-02T03:46:38;17.75;;;5.72;;
41927;SDS011;27616;51.420;6.788;2023-07-02T03:49:04;17.88;;;6.50;;
41927;SDS011;27616;51.420;6.788;2023-07-02T03:51:30;16.15;;;7.13;;
41927;SDS011;27616;51.420;6.788;2023-07-02T03:53:57;15.95;;;6.03;;
41927;SDS011;27616;51.420;6.788;2023-07-02T03:56:23;16.80;;;6.15;;
41927;SDS011;27616;51.420;6.788;2023-07-02T03:58:49;17.55;;;5.88;;
41927;SDS011;27616;51.420;6.788;2023-07-02T04:01:15;19.88;;;6.88;;
41927;SDS011;27616;51.420;6.788;2023-07-02T04:03:42;17.95;;;6.85;;
41927;SDS011;27616;51.420;6.788;2023-07-02T04:06:17;17.95;;;6.20;;
41927;SDS011;27616;51.420;6.788;2023-07-02T04:08:43;14.45;;;5.75;;
41927;SDS011;27616;51.420;6.788;2023-07-02T04:11:09;16.85;;;6.50;;
41927;SDS011;27616;51.420;6.788;2023-07-02T04:13:35;19.95;;;6.90;;
41927;SDS011;27616;51.420;6.788;2023-07-02T04:16:01;16.58;;;6.80;;
41927;SDS011;27616;51.420;6.788;2023-07-02T04:18:27;18.25;;;6.78;;
41927;SDS011;27616;51.420;6.788;2023-07-02T04:20:54;20.85;;;7.00;;
41927;SDS011;27616;51.420;6.788;2023-07-02T04:23:20;18.70;;;6.28;;
41927;SDS011;27616;51.420;6.788;2023-07-02T04:25:45;18.33;;;7.40;;
41927;SDS011;27616;51.420;6.788;2023-07-02T04:28:11;15.88;;;7.05;;
41927;SDS011;27616;51.420;6.788;2023-07-02T04:30:37;16.52;;;6.53;;
41927;SDS011;27616;51.420;6.788;2023-07-02T04:33:02;21.50;;;7.32;;
41927;SDS011;27616;51.420;6.788;2023-07-02T04:35:28;20.73;;;7.03;;
41927;SDS011;27616;51.420;6.788;2023-07-02T04:37:54;18.65;;;6.15;;
41927;SDS011;27616;51.420;6.788;2023-07-02T04:40:19;19.67;;;6.65;;
41927;SDS011;27616;51.420;6.788;2023-07-02T04:42:45;19.02;;;7.38;;
41927;SDS011;27616;51.420;6.788;2023-07-02T04:45:14;18.83;;;7.05;;
41927;SDS011;27616;51.420;6.788;2023-07-02T04:47:44;19.90;;;7.50;;
41927;SDS011;27616;51.420;6.788;2023-07-02T04:50:10;17.88;;;6.72;;
41927;SDS011;27616;51.420;6.788;2023-07-02T04:52:36;19.23;;;7.88;;
41927;SDS011;27616;51.420;6.788;2023-07-02T04:55:03;18.58;;;7.47;;
41927;SDS011;27616;51.420;6.788;2023-07-02T04:57:29;20.63;;;8.30;;
41927;SDS011;27616;51.420;6.788;2023-07-02T04:59:55;21.45;;;8.52;;
41927;SDS011;27616;51.420;6.788;2023-07-02T05:02:21;16.80;;;7.10;;
41927;SDS011;27616;51.420;6.788;2023-07-02T05:04:47;20.55;;;7.50;;
41927;SDS011;27616;51.420;6.788;2023-07-02T05:07:12;17.42;;;7.22;;
41927;SDS011;27616;51.420;6.788;2023-07-02T05:09:38;18.17;;;7.38;;
41927;SDS011;27616;51.420;6.788;2023-07-02T05:12:04;20.42;;;8.25;;
41927;SDS011;27616;51.420;6.788;2023-07-02T05:14:29;20.25;;;7.60;;
41927;SDS011;27616;51.420;6.788;2023-07-02T05:16:55;20.70;;;8.05;;
41927;SDS011;27616;51.420;6.788;2023-07-02T05:19:20;19.90;;;8.20;;
41927;SDS011;27616;51.420;6.788;2023-07-02T05:21:46;16.73;;;7.43;;
41927;SDS011;27616;51.420;6.788;2023-07-02T05:24:12;19.95;;;8.77;;
41927;SDS011;27616;51.420;6.788;2023-07-02T05:26:37;17.33;;;7.75;;
41927;SDS011;27616;51.420;6.788;2023-07-02T05:29:03;19.92;;;8.23;;
41927;SDS011;27616;51.420;6.788;2023-07-02T05:31:30;17.75;;;7.65;;
41927;SDS011;27616;51.420;6.788;2023-07-02T05:33:56;19.73;;;8.50;;
41927;SDS011;27616;51.420;6.788;2023-07-02T05:36:21;16.02;;;7.68;;
41927;SDS011;27616;51.420;6.788;2023-07-02T05:38:47;23.13;;;7.82;;
41927;SDS011;27616;51.420;6.788;2023-07-02T05:41:19;20.25;;;7.82;;
41927;SDS011;27616;51.420;6.788;2023-07-02T05:43:48;21.02;;;9.02;;
41927;SDS011;27616;51.420;6.788;2023-07-02T05:46:14;22.20;;;10.00;;
41927;SDS011;27616;51.420;6.788;2023-07-02T05:48:43;24.65;;;10.88;;
41927;SDS011;27616;51.420;6.788;2023-07-02T05:51:08;23.70;;;9.90;;
41927;SDS011;27616;51.420;6.788;2023-07-02T05:53:34;24.73;;;8.20;;
41927;SDS011;27616;51.420;6.788;2023-07-02T05:56:02;22.85;;;7.28;;
41927;SDS011;27616;51.420;6.788;2023-07-02T05:58:27;23.27;;;8.57;;
41927;SDS011;27616;51.420;6.788;2023-07-02T06:00:55;19.17;;;7.47;;
41927;SDS011;27616;51.420;6.788;2023-07-02T06:03:20;15.73;;;7.55;;
41927;SDS011;27616;51.420;6.788;2023-07-02T06:05:49;19.60;;;7.70;;
41927;SDS011;27616;51.420;6.788;2023-07-02T06:08:16;18.42;;;7.38;;
41927;SDS011;27616;51.420;6.788;2023-07-02T06:10:42;17.27;;;6.70;;
41927;SDS011;27616;51.420;6.788;2023-07-02T06:13:08;19.17;;;6.60;;
41927;SDS011;27616;51.420;6.788;2023-07-02T06:15:34;21.17;;;7.60;;
41927;SDS011;27616;51.420;6.788;2023-07-02T06:18:00;16.63;;;6.63;;
41927;SDS011;27616;51.420;6.788;2023-07-02T06:20:25;18.80;;;6.95;;
41927;SDS011;27616;51.420;6.788;2023-07-02T06:22:51;17.88;;;6.75;;
41927;SDS011;27616;51.420;6.788;2023-07-02T06:25:17;14.50;;;5.95;;
41927;SDS011;27616;51.420;6.788;2023-07-02T06:27:42;20.23;;;7.70;;
41927;SDS011;27616;51.420;6.788;2023-07-02T06:30:08;22.80;;;7.60;;
41927;SDS011;27616;51.420;6.788;2023-07-02T06:32:34;19.20;;;6.60;;
41927;SDS011;27616;51.420;6.788;2023-07-02T06:34:59;17.90;;;6.80;;
41927;SDS011;27616;51.420;6.788;2023-07-02T06:37:25;20.63;;;6.97;;
41927;SDS011;27616;51.420;6.788;2023-07-02T06:39:51;17.63;;;5.88;;
41927;SDS011;27616;51.420;6.788;2023-07-02T06:42:16;17.80;;;6.57;;
41927;SDS011;27616;51.420;6.788;2023-07-02T06:44:43;16.45;;;6.30;;
41927;SDS011;27616;51.420;6.788;2023-07-02T06:47:09;16.02;;;6.72;;
41927;SDS011;27616;51.420;6.788;2023-07-02T06:49:34;18.67;;;5.85;;
41927;SDS011;27616;51.420;6.788;2023-07-02T06:52:01;19.25;;;6.88;;
41927;SDS011;27616;51.420;6.788;2023-07-02T06:54:27;16.33;;;5.57;;
41927;SDS011;27616;51.420;6.788;2023-07-02T06:56:52;17.50;;;5.97;;
41927;SDS011;27616;51.420;6.788;2023-07-02T06:59:18;16.35;;;6.40;;
41927;SDS011;27616;51.420;6.788;2023-07-02T07:01:47;15.50;;;6.57;;
41927;SDS011;27616;51.420;6.788;2023-07-02T07:04:14;19.00;;;7.45;;
41927;SDS011;27616;51.420;6.788;2023-07-02T07:06:40;16.05;;;6.40;;
41927;SDS011;27616;51.420;6.788;2023-07-02T07:09:06;17.10;;;7.63;;
41927;SDS011;27616;51.420;6.788;2023-07-02T07:11:31;14.85;;;6.68;;
41927;SDS011;27616;51.420;6.788;2023-07-02T07:13:57;17.83;;;6.57;;
41927;SDS011;27616;51.420;6.788;2023-07-02T07:16:23;17.65;;;6.60;;
41927;SDS011;27616;51.420;6.788;2023-07-02T07:18:48;18.65;;;7.07;;
41927;SDS011;27616;51.420;6.788;2023-07-02T07:21:14;19.73;;;7.18;;
41927;SDS011;27616;51.420;6.788;2023-07-02T07:23:40;18.67;;;7.57;;
41927;SDS011;27616;51.420;6.788;2023-07-02T07:26:06;18.58;;;7.80;;
41927;SDS011;27616;51.420;6.788;2023-07-02T07:28:31;19.45;;;7.03;;
41927;SDS011;27616;51.420;6.788;2023-07-02T07:30:57;13.77;;;5.22;;
41927;SDS011;27616;51.420;6.788;2023-07-02T07:33:23;13.48;;;5.65;;
41927;SDS011;27616;51.420;6.788;2023-07-02T07:35:48;12.60;;;5.50;;
41927;SDS011;27616;51.420;6.788;2023-07-02T07:38:14;11.65;;;4.95;;
41927;SDS011;27616;51.420;6.788;2023-07-02T07:40:40;15.57;;;4.97;;
41927;SDS011;27616;51.420;6.788;2023-07-02T07:43:06;67.18;;;32.60;;
41927;SDS011;27616;51.420;6.788;2023-07-02T07:45:31;34.80;;;15.95;;
41927;SDS011;27616;51.420;6.788;2023-07-02T07:47:58;20.02;;;8.20;;
41927;SDS011;27616;51.420;6.788;2023-07-02T07:50:23;13.90;;;5.40;;
41927;SDS011;27616;51.420;6.788;2023-07-02T07:52:49;14.23;;;5.10;;
41927;SDS011;27616;51.420;6.788;2023-07-02T07:55:16;13.63;;;5.10;;
41927;SDS011;27616;51.420;6.788;2023-07-02T07:57:42;11.05;;;4.88;;
41927;SDS011;27616;51.420;6.788;2023-07-02T08:00:08;14.40;;;5.63;;
41927;SDS011;27616;51.420;6.788;2023-07-02T08:02:44;15.35;;;5.90;;
41927;SDS011;27616;51.420;6.788;2023-07-02T08:05:11;13.60;;;5.00;;
41927;SDS011;27616;51.420;6.788;2023-07-02T08:07:38;13.82;;;4.88;;
41927;SDS011;27616;51.420;6.788;2023-07-02T08:10:05;13.05;;;4.88;;
41927;SDS011;27616;51.420;6.788;2023-07-02T08:12:32;11.85;;;4.45;;
41927;SDS011;27616;51.420;6.788;2023-07-02T08:14:58;10.93;;;4.50;;
41927;SDS011;27616;51.420;6.788;2023-07-02T08:17:24;10.85;;;4.68;;
41927;SDS011;27616;51.420;6.788;2023-07-02T08:19:49;13.07;;;4.18;;
41927;SDS011;27616;51.420;6.788;2023-07-02T08:22:15;9.20;;;4.30;;
41927;SDS011;27616;51.420;6.788;2023-07-02T08:24:41;14.38;;;5.03;;
41927;SDS011;27616;51.420;6.788;2023-07-02T08:27:06;11.98;;;4.78;;
41927;SDS011;27616;51.420;6.788;2023-07-02T08:29:32;10.75;;;4.45;;
41927;SDS011;27616;51.420;6.788;2023-07-02T08:31:58;12.75;;;4.13;;
41927;SDS011;27616;51.420;6.788;2023-07-02T08:34:23;15.35;;;4.10;;
41927;SDS011;27616;51.420;6.788;2023-07-02T08:36:49;12.60;;;4.07;;
41927;SDS011;27616;51.420;6.788;2023-07-02T08:39:16;9.23;;;4.05;;
41927;SDS011;27616;51.420;6.788;2023-07-02T08:41:42;11.50;;;4.78;;
41927;SDS011;27616;51.420;6.788;2023-07-02T08:44:09;14.10;;;4.45;;
41927;SDS011;27616;51.420;6.788;2023-07-02T08:46:36;12.88;;;3.90;;
41927;SDS011;27616;51.420;6.788;2023-07-02T08:49:02;12.25;;;3.85;;
41927;SDS011;27616;51.420;6.788;2023-07-02T08:51:28;10.25;;;3.28;;
41927;SDS011;27616;51.420;6.788;2023-07-02T08:53:54;9.05;;;3.63;;
41927;SDS011;27616;51.420;6.788;2023-07-02T08:56:19;11.00;;;3.15;;
41927;SDS011;27616;51.420;6.788;2023-07-02T08:58:45;11.10;;;3.75;;
41927;SDS011;27616;51.420;6.788;2023-07-02T09:01:11;10.80;;;4.18;;
41927;SDS011;27616;51.420;6.788;2023-07-02T09:03:38;16.13;;;5.43;;
41927;SDS011;27616;51.420;6.788;2023-07-02T09:06:05;10.60;;;5.25;;
41927;SDS011;27616;51.420;6.788;2023-07-02T09:08:32;12.57;;;5.80;;
41927;SDS011;27616;51.420;6.788;2023-07-02T09:11:14;13.63;;;5.10;;
41927;SDS011;27616;51.420;6.788;2023-07-02T09:13:48;18.30;;;7.88;;
41927;SDS011;27616;51.420;6.788;2023-07-02T09:16:28;13.30;;;4.32;;
41927;SDS011;27616;51.420;6.788;2023-07-02T09:19:03;19.85;;;8.75;;
41927;SDS011;27616;51.420;6.788;2023-07-02T09:21:46;10.98;;;5.00;;
41927;SDS011;27616;51.420;6.788;2023-07-02T09:24:16;11.05;;;5.22;;
41927;SDS011;27616;51.420;6.788;2023-07-02T09:26:47;12.45;;;4.47;;
41927;SDS011;27616;51.420;6.788;2023-07-02T09:32:23;13.07;;;4.75;;
41927;SDS011;27616;51.420;6.788;2023-07-02T09:34:50;12.25;;;5.20;;
41927;SDS011;27616;51.420;6.788;2023-07-02T09:37:17;11.35;;;4.25;;
41927;SDS011;27616;51.420;6.788;2023-07-02T09:39:42;14.15;;;5.40;;
41927;SDS011;27616;51.420;6.788;2023-07-02T09:42:08;13.07;;;5.13;;
41927;SDS011;27616;51.420;6.788;2023-07-02T09:44:35;13.05;;;4.30;;
41927;SDS011;27616;51.420;6.788;2023-07-02T09:47:02;11.45;;;4.75;;
41927;SDS011;27616;51.420;6.788;2023-07-02T09:49:35;13.63;;;4.68;;
41927;SDS011;27616;51.420;6.788;2023-07-02T09:54:35;15.75;;;5.18;;
41927;SDS011;27616;51.420;6.788;2023-07-02T09:57:01;11.48;;;4.47;;
41927;SDS011;27616;51.420;6.788;2023-07-02T09:59:28;11.02;;;4.22;;
41927;SDS011;27616;51.420;6.788;2023-07-02T10:01:54;12.68;;;4.63;;
41927;SDS011;27616;51.420;6.788;2023-07-02T10:04:20;9.98;;;3.90;;
41927;SDS011;27616;51.420;6.788;2023-07-02T10:06:51;12.32;;;4.35;;
41927;SDS011;27616;51.420;6.788;2023-07-02T10:09:18;10.02;;;3.97;;
41927;SDS011;27616;51.420;6.788;2023-07-02T10:11:45;9.68;;;4.20;;
41927;SDS011;27616;51.420;6.788;2023-07-02T10:14:11;9.23;;;3.85;;
41927;SDS011;27616;51.420;6.788;2023-07-02T10:16:50;12.48;;;4.05;;
41927;SDS011;27616;51.420;6.788;2023-07-02T10:19:16;12.60;;;4.20;;
41927;SDS011;27616;51.420;6.788;2023-07-02T10:21:42;11.40;;;3.88;;
41927;SDS011;27616;51.420;6.788;2023-07-02T10:26:36;9.45;;;3.83;;
41927;SDS011;27616;51.420;6.788;2023-07-02T10:29:02;8.98;;;3.38;;
41927;SDS011;27616;51.420;6.788;2023-07-02T10:31:28;8.85;;;3.42;;
41927;SDS011;27616;51.420;6.788;2023-07-02T10:33:54;6.75;;;3.17;;
41927;SDS011;27616;51.420;6.788;2023-07-02T10:36:20;12.73;;;4.78;;
41927;SDS011;27616;51.420;6.788;2023-07-02T10:38:48;9.95;;;3.90;;
41927;SDS011;27616;51.420;6.788;2023-07-02T10:44:10;13.50;;;5.55;;
41927;SDS011;27616;51.420;6.788;2023-07-02T10:46:42;13.48;;;3.92;;
41927;SDS011;27616;51.420;6.788;2023-07-02T10:49:12;12.63;;;4.78;;
41927;SDS011;27616;51.420;6.788;2023-07-02T10:51:38;11.52;;;4.75;;
41927;SDS011;27616;51.420;6.788;2023-07-02T10:54:04;8.15;;;3.72;;
41927;SDS011;27616;51.420;6.788;2023-07-02T10:56:30;11.73;;;3.83;;
41927;SDS011;27616;51.420;6.788;2023-07-02T10:58:56;9.50;;;4.18;;
41927;SDS011;27616;51.420;6.788;2023-07-02T11:01:29;11.15;;;4.80;;
41927;SDS011;27616;51.420;6.788;2023-07-02T11:03:56;7.82;;;3.55;;
41927;SDS011;27616;51.420;6.788;2023-07-02T11:06:32;8.93;;;3.03;;
41927;SDS011;27616;51.420;6.788;2023-07-02T11:08:58;11.63;;;3.88;;
41927;SDS011;27616;51.420;6.788;2023-07-02T11:11:25;9.57;;;4.00;;
41927;SDS011;27616;51.420;6.788;2023-07-02T11:13:51;9.70;;;3.80;;
41927;SDS011;27616;51.420;6.788;2023-07-02T11:16:24;10.57;;;3.47;;
41927;SDS011;27616;51.420;6.788;2023-07-02T11:19:05;8.82;;;3.38;;
41927;SDS011;27616;51.420;6.788;2023-07-02T11:21:35;8.80;;;4.05;;
41927;SDS011;27616;51.420;6.788;2023-07-02T11:24:08;8.88;;;3.63;;
41927;SDS011;27616;51.420;6.788;2023-07-02T11:26:40;10.02;;;3.22;;
41927;SDS011;27616;51.420;6.788;2023-07-02T11:29:12;12.68;;;6.43;;
41927;SDS011;27616;51.420;6.788;2023-07-02T11:31:42;9.35;;;3.70;;
41927;SDS011;27616;51.420;6.788;2023-07-02T11:34:15;9.07;;;3.25;;
41927;SDS011;27616;51.420;6.788;2023-07-02T11:36:42;9.40;;;3.20;;
41927;SDS011;27616;51.420;6.788;2023-07-02T11:39:08;8.82;;;3.42;;
41927;SDS011;27616;51.420;6.788;2023-07-02T11:41:37;7.43;;;3.33;;
41927;SDS011;27616;51.420;6.788;2023-07-02T11:44:04;13.07;;;3.90;;
41927;SDS011;27616;51.420;6.788;2023-07-02T11:46:30;8.10;;;3.35;;
41927;SDS011;27616;51.420;6.788;2023-07-02T11:48:55;8.38;;;3.75;;
41927;SDS011;27616;51.420;6.788;2023-07-02T11:51:21;8.30;;;3.45;;
41927;SDS011;27616;51.420;6.788;2023-07-02T11:53:47;8.27;;;3.30;;
41927;SDS011;27616;51.420;6.788;2023-07-02T11:56:12;8.77;;;3.45;;
41927;SDS011;27616;51.420;6.788;2023-07-02T11:58:38;9.95;;;3.47;;
41927;SDS011;27616;51.420;6.788;2023-07-02T12:01:05;9.55;;;3.20;;
41927;SDS011;27616;51.420;6.788;2023-07-02T12:03:30;8.25;;;4.00;;
41927;SDS011;27616;51.420;6.788;2023-07-02T12:05:56;10.32;;;3.88;;
41927;SDS011;27616;51.420;6.788;2023-07-02T12:08:22;7.30;;;3.60;;
41927;SDS011;27616;51.420;6.788;2023-07-02T12:10:47;8.13;;;4.07;;
41927;SDS011;27616;51.420;6.788;2023-07-02T12:13:13;9.27;;;3.15;;
41927;SDS011;27616;51.420;6.788;2023-07-02T12:15:39;9.70;;;3.67;;
41927;SDS011;27616;51.420;6.788;2023-07-02T12:18:04;10.07;;;3.67;;
41927;SDS011;27616;51.420;6.788;2023-07-02T12:20:30;11.45;;;3.38;;
41927;SDS011;27616;51.420;6.788;2023-07-02T12:22:56;7.00;;;3.15;;
41927;SDS011;27616;51.420;6.788;2023-07-02T12:25:22;7.85;;;3.33;;
41927;SDS011;27616;51.420;6.788;2023-07-02T12:27:48;7.82;;;3.22;;
41927;SDS011;27616;51.420;6.788;2023-07-02T12:30:13;9.38;;;3.50;;
41927;SDS011;27616;51.420;6.788;2023-07-02T12:32:42;10.75;;;3.35;;
41927;SDS011;27616;51.420;6.788;2023-07-02T12:35:09;11.15;;;3.63;;
41927;SDS011;27616;51.420;6.788;2023-07-02T12:37:35;9.10;;;3.58;;
41927;SDS011;27616;51.420;6.788;2023-07-02T12:40:07;8.48;;;3.58;;
41927;SDS011;27616;51.420;6.788;2023-07-02T12:42:33;7.70;;;3.65;;
41927;SDS011;27616;51.420;6.788;2023-07-02T12:44:59;10.25;;;4.30;;
41927;SDS011;27616;51.420;6.788;2023-07-02T12:47:24;10.57;;;4.38;;
41927;SDS011;27616;51.420;6.788;2023-07-02T12:49:50;9.23;;;4.00;;
41927;SDS011;27616;51.420;6.788;2023-07-02T12:52:15;9.02;;;3.72;;
41927;SDS011;27616;51.420;6.788;2023-07-02T12:54:41;8.82;;;3.83;;
41927;SDS011;27616;51.420;6.788;2023-07-02T12:57:06;9.32;;;4.00;;
41927;SDS011;27616;51.420;6.788;2023-07-02T12:59:32;10.27;;;3.97;;
41927;SDS011;27616;51.420;6.788;2023-07-02T13:01:58;9.40;;;3.65;;
41927;SDS011;27616;51.420;6.788;2023-07-02T13:04:23;8.98;;;4.07;;
41927;SDS011;27616;51.420;6.788;2023-07-02T13:06:49;9.05;;;4.35;;
41927;SDS011;27616;51.420;6.788;2023-07-02T13:09:14;10.70;;;3.80;;
41927;SDS011;27616;51.420;6.788;2023-07-02T13:11:40;10.80;;;4.50;;
41927;SDS011;27616;51.420;6.788;2023-07-02T13:14:05;10.80;;;4.30;;
41927;SDS011;27616;51.420;6.788;2023-07-02T13:16:31;15.02;;;6.95;;
41927;SDS011;27616;51.420;6.788;2023-07-02T13:18:57;12.20;;;4.82;;
41927;SDS011;27616;51.420;6.788;2023-07-02T13:21:22;12.27;;;4.20;;
41927;SDS011;27616;51.420;6.788;2023-07-02T13:23:48;12.13;;;5.82;;
41927;SDS011;27616;51.420;6.788;2023-07-02T13:26:13;10.30;;;5.18;;
41927;SDS011;27616;51.420;6.788;2023-07-02T13:28:39;11.18;;;5.10;;
41927;SDS011;27616;51.420;6.788;2023-07-02T13:31:05;9.07;;;3.85;;
41927;SDS011;27616;51.420;6.788;2023-07-02T13:33:32;9.60;;;4.60;;
41927;SDS011;27616;51.420;6.788;2023-07-02T13:35:58;11.70;;;4.35;;
41927;SDS011;27616;51.420;6.788;2023-07-02T13:38:24;11.30;;;4.88;;
41927;SDS011;27616;51.420;6.788;2023-07-02T13:40:49;12.70;;;5.28;;
41927;SDS011;27616;51.420;6.788;2023-07-02T13:43:15;12.10;;;6.05;;
41927;SDS011;27616;51.420;6.788;2023-07-02T13:45:40;11.73;;;4.72;;
41927;SDS011;27616;51.420;6.788;2023-07-02T13:48:06;8.85;;;4.13;;
41927;SDS011;27616;51.420;6.788;2023-07-02T13:50:31;16.63;;;6.53;;
41927;SDS011;27616;51.420;6.788;2023-07-02T13:52:57;10.07;;;4.35;;
41927;SDS011;27616;51.420;6.788;2023-07-02T13:55:23;13.57;;;5.72;;
41927;SDS011;27616;51.420;6.788;2023-07-02T13:57:53;12.32;;;5.85;;
41927;SDS011;27616;51.420;6.788;2023-07-02T14:00:19;12.35;;;4.93;;
41927;SDS011;27616;51.420;6.788;2023-07-02T14:02:45;13.07;;;5.00;;
41927;SDS011;27616;51.420;6.788;2023-07-02T14:05:11;13.80;;;6.15;;
41927;SDS011;27616;51.420;6.788;2023-07-02T14:07:36;11.48;;;5.55;;
41927;SDS011;27616;51.420;6.788;2023-07-02T14:10:02;9.95;;;4.30;;
41927;SDS011;27616;51.420;6.788;2023-07-02T14:12:28;9.95;;;4.55;;
41927;SDS011;27616;51.420;6.788;2023-07-02T14:14:53;11.77;;;5.10;;
41927;SDS011;27616;51.420;6.788;2023-07-02T14:17:19;16.33;;;6.40;;
41927;SDS011;27616;51.420;6.788;2023-07-02T14:19:45;12.25;;;5.20;;
41927;SDS011;27616;51.420;6.788;2023-07-02T14:22:10;12.57;;;5.80;;
41927;SDS011;27616;51.420;6.788;2023-07-02T14:24:36;13.57;;;4.85;;
41927;SDS011;27616;51.420;6.788;2023-07-02T14:27:02;16.52;;;5.20;;
41927;SDS011;27616;51.420;6.788;2023-07-02T14:29:27;9.45;;;4.25;;
41927;SDS011;27616;51.420;6.788;2023-07-02T14:31:53;11.75;;;5.35;;
41927;SDS011;27616;51.420;6.788;2023-07-02T14:34:19;12.48;;;5.22;;
41927;SDS011;27616;51.420;6.788;2023-07-02T14:36:44;10.93;;;4.43;;
41927;SDS011;27616;51.420;6.788;2023-07-02T14:39:10;12.82;;;6.20;;
41927;SDS011;27616;51.420;6.788;2023-07-02T14:41:36;13.30;;;6.53;;
41927;SDS011;27616;51.420;6.788;2023-07-02T14:44:02;11.60;;;4.90;;
41927;SDS011;27616;51.420;6.788;2023-07-02T14:46:28;12.32;;;4.60;;
41927;SDS011;27616;51.420;6.788;2023-07-02T14:48:54;13.40;;;4.88;;
41927;SDS011;27616;51.420;6.788;2023-07-02T14:51:20;12.20;;;5.10;;